sensor_id;sensor_type;location;lat;lon;timestamp;P1;durP1;ratioP1;P2;durP2;ratioP2
72569;SDS011;60594;50.204;8.844;2024-02-28T00:00:25;17.30;;;8.52;;
72569;SDS011;60594;50.204;8.844;2024-02-28T00:03:31;16.95;;;8.20;;
72569;SDS011;60594;50.204;8.844;2024-02-28T00:06:19;15.55;;;6.80;;
72569;SDS011;60594;50.204;8.844;2024-02-28T00:09:04;17.73;;;8.02;;
72569;SDS011;60594;50.204;8.844;2024-02-28T00:11:50;19.40;;;9.15;;
72569;SDS011;60594;50.204;8.844;2024-02-28T00:17:24;17.77;;;7.78;;
72569;SDS011;60594;50.204;8.844;2024-02-28T00:20:10;18.02;;;7.63;;
72569;SDS011;60594;50.204;8.844;2024-02-28T00:22:56;18.63;;;8.75;;
72569;SDS011;60594;50.204;8.844;2024-02-28T00:25:41;15.60;;;7.55;;
72569;SDS011;60594;50.204;8.844;2024-02-28T00:28:27;17.00;;;7.18;;
72569;SDS011;60594;50.204;8.844;2024-02-28T00:31:12;17.85;;;7.90;;
72569;SDS011;60594;50.204;8.844;2024-02-28T00:34:02;17.20;;;8.02;;
72569;SDS011;60594;50.204;8.844;2024-02-28T00:36:47;16.98;;;7.80;;
72569;SDS011;60594;50.204;8.844;2024-02-28T00:39:32;16.42;;;7.80;;
72569;SDS011;60594;50.204;8.844;2024-02-28T00:42:17;16.60;;;7.90;;
72569;SDS011;60594;50.204;8.844;2024-02-28T00:45:02;21.45;;;9.30;;
72569;SDS011;60594;50.204;8.844;2024-02-28T00:47:49;17.15;;;7.50;;
72569;SDS011;60594;50.204;8.844;2024-02-28T00:50:35;17.05;;;8.68;;
72569;SDS011;60594;50.204;8.844;2024-02-28T00:53:20;15.35;;;8.05;;
72569;SDS011;60594;50.204;8.844;2024-02-28T00:56:07;18.13;;;7.85;;
72569;SDS011;60594;50.204;8.844;2024-02-28T00:58:55;13.98;;;6.68;;
72569;SDS011;60594;50.204;8.844;2024-02-28T01:01:40;14.07;;;6.97;;
72569;SDS011;60594;50.204;8.844;2024-02-28T01:04:26;15.55;;;7.13;;
72569;SDS011;60594;50.204;8.844;2024-02-28T01:07:14;14.15;;;7.10;;
72569;SDS011;60594;50.204;8.844;2024-02-28T01:09:59;13.68;;;7.07;;
72569;SDS011;60594;50.204;8.844;2024-02-28T01:12:44;15.88;;;7.10;;
72569;SDS011;60594;50.204;8.844;2024-02-28T01:15:29;20.67;;;7.78;;
72569;SDS011;60594;50.204;8.844;2024-02-28T01:18:15;15.13;;;7.22;;
72569;SDS011;60594;50.204;8.844;2024-02-28T01:20:59;16.67;;;8.02;;
72569;SDS011;60594;50.204;8.844;2024-02-28T01:23:45;13.40;;;6.40;;
72569;SDS011;60594;50.204;8.844;2024-02-28T01:26:32;18.15;;;7.25;;
72569;SDS011;60594;50.204;8.844;2024-02-28T01:29:17;18.13;;;7.65;;
72569;SDS011;60594;50.204;8.844;2024-02-28T01:32:02;17.50;;;6.80;;
72569;SDS011;60594;50.204;8.844;2024-02-28T01:34:47;17.80;;;7.45;;
72569;SDS011;60594;50.204;8.844;2024-02-28T01:37:32;16.17;;;7.80;;
72569;SDS011;60594;50.204;8.844;2024-02-28T01:40:17;17.55;;;7.63;;
72569;SDS011;60594;50.204;8.844;2024-02-28T01:43:08;15.55;;;6.75;;
72569;SDS011;60594;50.204;8.844;2024-02-28T01:45:54;15.73;;;7.55;;
72569;SDS011;60594;50.204;8.844;2024-02-28T01:48:38;17.25;;;7.72;;
72569;SDS011;60594;50.204;8.844;2024-02-28T01:51:27;17.40;;;7.53;;
72569;SDS011;60594;50.204;8.844;2024-02-28T01:54:12;16.60;;;7.55;;
72569;SDS011;60594;50.204;8.844;2024-02-28T01:56:58;18.13;;;7.85;;
72569;SDS011;60594;50.204;8.844;2024-02-28T01:59:45;16.67;;;7.75;;
72569;SDS011;60594;50.204;8.844;2024-02-28T02:02:31;18.02;;;7.45;;
72569;SDS011;60594;50.204;8.844;2024-02-28T02:05:20;16.33;;;7.00;;
72569;SDS011;60594;50.204;8.844;2024-02-28T02:08:05;15.45;;;7.60;;
72569;SDS011;60594;50.204;8.844;2024-02-28T02:10:50;16.52;;;8.25;;
72569;SDS011;60594;50.204;8.844;2024-02-28T02:13:46;15.40;;;7.32;;
72569;SDS011;60594;50.204;8.844;2024-02-28T02:16:32;15.38;;;7.60;;
72569;SDS011;60594;50.204;8.844;2024-02-28T02:19:17;15.90;;;8.02;;
72569;SDS011;60594;50.204;8.844;2024-02-28T02:22:02;19.52;;;8.25;;
72569;SDS011;60594;50.204;8.844;2024-02-28T02:24:50;18.50;;;8.27;;
72569;SDS011;60594;50.204;8.844;2024-02-28T02:27:37;18.65;;;8.50;;
72569;SDS011;60594;50.204;8.844;2024-02-28T02:30:22;18.52;;;8.60;;
72569;SDS011;60594;50.204;8.844;2024-02-28T02:33:07;18.20;;;8.13;;
72569;SDS011;60594;50.204;8.844;2024-02-28T02:35:55;19.42;;;8.48;;
72569;SDS011;60594;50.204;8.844;2024-02-28T02:38:40;19.70;;;8.43;;
72569;SDS011;60594;50.204;8.844;2024-02-28T02:41:25;16.73;;;8.50;;
72569;SDS011;60594;50.204;8.844;2024-02-28T02:44:10;18.50;;;8.65;;
72569;SDS011;60594;50.204;8.844;2024-02-28T02:46:55;16.63;;;8.02;;
72569;SDS011;60594;50.204;8.844;2024-02-28T02:49:40;18.55;;;8.13;;
72569;SDS011;60594;50.204;8.844;2024-02-28T02:52:25;17.70;;;7.95;;
72569;SDS011;60594;50.204;8.844;2024-02-28T02:55:10;19.45;;;8.35;;
72569;SDS011;60594;50.204;8.844;2024-02-28T02:57:55;17.30;;;8.93;;
72569;SDS011;60594;50.204;8.844;2024-02-28T03:00:39;18.67;;;8.43;;
72569;SDS011;60594;50.204;8.844;2024-02-28T03:03:25;17.95;;;8.68;;
72569;SDS011;60594;50.204;8.844;2024-02-28T03:06:09;19.63;;;7.80;;
72569;SDS011;60594;50.204;8.844;2024-02-28T03:08:54;18.60;;;7.90;;
72569;SDS011;60594;50.204;8.844;2024-02-28T03:11:39;15.93;;;8.02;;
72569;SDS011;60594;50.204;8.844;2024-02-28T03:14:24;17.08;;;8.50;;
72569;SDS011;60594;50.204;8.844;2024-02-28T03:17:09;16.23;;;8.10;;
72569;SDS011;60594;50.204;8.844;2024-02-28T03:19:54;18.77;;;7.85;;
72569;SDS011;60594;50.204;8.844;2024-02-28T03:22:40;19.10;;;8.38;;
72569;SDS011;60594;50.204;8.844;2024-02-28T03:25:25;19.20;;;8.73;;
72569;SDS011;60594;50.204;8.844;2024-02-28T03:28:10;20.40;;;8.52;;
72569;SDS011;60594;50.204;8.844;2024-02-28T03:30:55;19.88;;;7.85;;
72569;SDS011;60594;50.204;8.844;2024-02-28T03:33:40;19.95;;;8.77;;
72569;SDS011;60594;50.204;8.844;2024-02-28T03:36:27;18.13;;;8.82;;
72569;SDS011;60594;50.204;8.844;2024-02-28T03:39:13;16.92;;;8.18;;
72569;SDS011;60594;50.204;8.844;2024-02-28T03:41:58;18.67;;;8.35;;
72569;SDS011;60594;50.204;8.844;2024-02-28T03:44:43;17.50;;;7.28;;
72569;SDS011;60594;50.204;8.844;2024-02-28T03:47:28;19.40;;;9.02;;
72569;SDS011;60594;50.204;8.844;2024-02-28T03:50:13;21.50;;;8.75;;
72569;SDS011;60594;50.204;8.844;2024-02-28T03:52:58;17.33;;;8.38;;
72569;SDS011;60594;50.204;8.844;2024-02-28T03:55:43;17.10;;;7.43;;
72569;SDS011;60594;50.204;8.844;2024-02-28T03:58:28;21.48;;;9.15;;
72569;SDS011;60594;50.204;8.844;2024-02-28T04:01:13;21.90;;;10.50;;
72569;SDS011;60594;50.204;8.844;2024-02-28T04:03:58;23.20;;;8.68;;
72569;SDS011;60594;50.204;8.844;2024-02-28T04:06:43;19.95;;;8.98;;
72569;SDS011;60594;50.204;8.844;2024-02-28T04:09:28;22.10;;;9.95;;
72569;SDS011;60594;50.204;8.844;2024-02-28T04:12:13;20.20;;;8.70;;
72569;SDS011;60594;50.204;8.844;2024-02-28T04:14:58;21.75;;;8.75;;
72569;SDS011;60594;50.204;8.844;2024-02-28T04:17:43;19.88;;;9.20;;
72569;SDS011;60594;50.204;8.844;2024-02-28T04:20:28;20.83;;;9.10;;
72569;SDS011;60594;50.204;8.844;2024-02-28T04:23:13;22.30;;;8.95;;
72569;SDS011;60594;50.204;8.844;2024-02-28T04:25:58;20.00;;;8.52;;
72569;SDS011;60594;50.204;8.844;2024-02-28T04:28:43;18.33;;;8.52;;
72569;SDS011;60594;50.204;8.844;2024-02-28T04:31:28;22.55;;;9.20;;
72569;SDS011;60594;50.204;8.844;2024-02-28T04:34:12;25.45;;;10.70;;
72569;SDS011;60594;50.204;8.844;2024-02-28T04:36:58;23.15;;;10.32;;
72569;SDS011;60594;50.204;8.844;2024-02-28T04:39:42;19.52;;;8.25;;
72569;SDS011;60594;50.204;8.844;2024-02-28T04:42:27;19.27;;;9.52;;
72569;SDS011;60594;50.204;8.844;2024-02-28T04:45:12;19.63;;;8.73;;
72569;SDS011;60594;50.204;8.844;2024-02-28T04:47:57;19.77;;;9.10;;
72569;SDS011;60594;50.204;8.844;2024-02-28T04:50:42;23.55;;;9.48;;
72569;SDS011;60594;50.204;8.844;2024-02-28T04:53:27;19.70;;;8.50;;
72569;SDS011;60594;50.204;8.844;2024-02-28T04:56:12;21.35;;;8.88;;
72569;SDS011;60594;50.204;8.844;2024-02-28T04:58:57;22.50;;;9.25;;
72569;SDS011;60594;50.204;8.844;2024-02-28T05:01:42;21.83;;;8.88;;
72569;SDS011;60594;50.204;8.844;2024-02-28T05:04:28;22.38;;;9.88;;
72569;SDS011;60594;50.204;8.844;2024-02-28T05:07:12;23.10;;;8.30;;
72569;SDS011;60594;50.204;8.844;2024-02-28T05:09:57;21.27;;;9.20;;
72569;SDS011;60594;50.204;8.844;2024-02-28T05:12:42;20.55;;;8.48;;
72569;SDS011;60594;50.204;8.844;2024-02-28T05:15:27;22.17;;;9.23;;
72569;SDS011;60594;50.204;8.844;2024-02-28T05:18:12;24.52;;;10.55;;
72569;SDS011;60594;50.204;8.844;2024-02-28T05:20:57;23.42;;;9.60;;
72569;SDS011;60594;50.204;8.844;2024-02-28T05:23:42;22.70;;;9.65;;
72569;SDS011;60594;50.204;8.844;2024-02-28T05:26:27;23.17;;;9.50;;
72569;SDS011;60594;50.204;8.844;2024-02-28T05:29:12;22.92;;;9.95;;
72569;SDS011;60594;50.204;8.844;2024-02-28T05:31:57;19.83;;;8.85;;
72569;SDS011;60594;50.204;8.844;2024-02-28T05:34:42;20.58;;;9.05;;
72569;SDS011;60594;50.204;8.844;2024-02-28T05:37:27;19.52;;;9.25;;
72569;SDS011;60594;50.204;8.844;2024-02-28T05:40:12;20.92;;;9.40;;
72569;SDS011;60594;50.204;8.844;2024-02-28T05:42:57;26.00;;;9.63;;
72569;SDS011;60594;50.204;8.844;2024-02-28T05:45:42;20.42;;;9.93;;
72569;SDS011;60594;50.204;8.844;2024-02-28T05:48:27;21.92;;;9.38;;
72569;SDS011;60594;50.204;8.844;2024-02-28T05:51:12;21.20;;;9.93;;
72569;SDS011;60594;50.204;8.844;2024-02-28T05:53:58;19.23;;;8.65;;
72569;SDS011;60594;50.204;8.844;2024-02-28T05:56:42;21.30;;;9.13;;
72569;SDS011;60594;50.204;8.844;2024-02-28T05:59:28;21.25;;;9.43;;
72569;SDS011;60594;50.204;8.844;2024-02-28T06:02:12;21.55;;;9.82;;
72569;SDS011;60594;50.204;8.844;2024-02-28T06:04:57;19.15;;;9.43;;
72569;SDS011;60594;50.204;8.844;2024-02-28T06:07:42;22.65;;;10.05;;
72569;SDS011;60594;50.204;8.844;2024-02-28T06:10:27;23.73;;;10.88;;
72569;SDS011;60594;50.204;8.844;2024-02-28T06:13:13;21.35;;;9.27;;
72569;SDS011;60594;50.204;8.844;2024-02-28T06:15:58;25.52;;;9.45;;
72569;SDS011;60594;50.204;8.844;2024-02-28T06:38:01;28.20;;;9.48;;
72569;SDS011;60594;50.204;8.844;2024-02-28T06:40:51;25.75;;;9.95;;
72569;SDS011;60594;50.204;8.844;2024-02-28T06:43:39;22.25;;;9.43;;
72569;SDS011;60594;50.204;8.844;2024-02-28T06:46:24;23.33;;;8.60;;
72569;SDS011;60594;50.204;8.844;2024-02-28T06:49:12;21.42;;;9.15;;
72569;SDS011;60594;50.204;8.844;2024-02-28T06:51:57;21.55;;;9.38;;
72569;SDS011;60594;50.204;8.844;2024-02-28T06:54:46;23.95;;;10.48;;
72569;SDS011;60594;50.204;8.844;2024-02-28T06:57:33;23.65;;;9.20;;
72569;SDS011;60594;50.204;8.844;2024-02-28T07:00:21;22.65;;;9.45;;
72569;SDS011;60594;50.204;8.844;2024-02-28T07:03:06;23.08;;;9.02;;
72569;SDS011;60594;50.204;8.844;2024-02-28T07:05:55;22.70;;;8.85;;
72569;SDS011;60594;50.204;8.844;2024-02-28T07:08:40;19.70;;;8.80;;
72569;SDS011;60594;50.204;8.844;2024-02-28T07:11:25;26.67;;;9.40;;
72569;SDS011;60594;50.204;8.844;2024-02-28T07:14:10;21.65;;;10.38;;
72569;SDS011;60594;50.204;8.844;2024-02-28T07:16:55;32.35;;;9.07;;
72569;SDS011;60594;50.204;8.844;2024-02-28T07:19:40;25.70;;;9.20;;
72569;SDS011;60594;50.204;8.844;2024-02-28T07:22:24;19.42;;;8.38;;
72569;SDS011;60594;50.204;8.844;2024-02-28T07:25:10;22.48;;;8.68;;
72569;SDS011;60594;50.204;8.844;2024-02-28T07:27:59;21.48;;;8.23;;
72569;SDS011;60594;50.204;8.844;2024-02-28T07:30:44;20.00;;;8.07;;
72569;SDS011;60594;50.204;8.844;2024-02-28T07:33:35;25.27;;;8.07;;
72569;SDS011;60594;50.204;8.844;2024-02-28T07:36:20;20.58;;;8.48;;
72569;SDS011;60594;50.204;8.844;2024-02-28T07:39:05;23.77;;;9.43;;
72569;SDS011;60594;50.204;8.844;2024-02-28T07:42:02;22.38;;;8.90;;
72569;SDS011;60594;50.204;8.844;2024-02-28T07:44:46;21.60;;;9.05;;
72569;SDS011;60594;50.204;8.844;2024-02-28T07:47:32;21.95;;;8.70;;
72569;SDS011;60594;50.204;8.844;2024-02-28T07:50:17;25.60;;;8.68;;
72569;SDS011;60594;50.204;8.844;2024-02-28T07:53:03;19.10;;;8.05;;
72569;SDS011;60594;50.204;8.844;2024-02-28T07:55:48;22.92;;;8.85;;
72569;SDS011;60594;50.204;8.844;2024-02-28T07:58:34;21.73;;;7.75;;
72569;SDS011;60594;50.204;8.844;2024-02-28T08:01:19;26.05;;;8.63;;
72569;SDS011;60594;50.204;8.844;2024-02-28T08:04:04;23.23;;;9.02;;
72569;SDS011;60594;50.204;8.844;2024-02-28T08:06:48;23.40;;;9.05;;
72569;SDS011;60594;50.204;8.844;2024-02-28T08:09:33;28.40;;;9.32;;
72569;SDS011;60594;50.204;8.844;2024-02-28T08:12:18;29.55;;;7.53;;
72569;SDS011;60594;50.204;8.844;2024-02-28T08:15:04;21.98;;;8.77;;
72569;SDS011;60594;50.204;8.844;2024-02-28T08:17:50;28.73;;;9.00;;
72569;SDS011;60594;50.204;8.844;2024-02-28T08:20:35;25.33;;;8.95;;
72569;SDS011;60594;50.204;8.844;2024-02-28T08:23:20;27.40;;;8.40;;
72569;SDS011;60594;50.204;8.844;2024-02-28T08:26:05;19.92;;;8.23;;
72569;SDS011;60594;50.204;8.844;2024-02-28T08:28:49;18.42;;;7.70;;
72569;SDS011;60594;50.204;8.844;2024-02-28T08:31:39;20.45;;;8.95;;
72569;SDS011;60594;50.204;8.844;2024-02-28T08:34:26;20.20;;;7.38;;
72569;SDS011;60594;50.204;8.844;2024-02-28T08:37:11;23.88;;;7.07;;
72569;SDS011;60594;50.204;8.844;2024-02-28T08:39:57;19.63;;;7.93;;
72569;SDS011;60594;50.204;8.844;2024-02-28T08:42:43;21.52;;;8.23;;
72569;SDS011;60594;50.204;8.844;2024-02-28T08:45:28;19.65;;;8.93;;
72569;SDS011;60594;50.204;8.844;2024-02-28T08:48:13;21.35;;;9.02;;
72569;SDS011;60594;50.204;8.844;2024-02-28T08:50:58;19.70;;;8.07;;
72569;SDS011;60594;50.204;8.844;2024-02-28T08:53:43;20.45;;;7.57;;
72569;SDS011;60594;50.204;8.844;2024-02-28T08:56:27;21.90;;;7.82;;
72569;SDS011;60594;50.204;8.844;2024-02-28T08:59:12;22.42;;;7.93;;
72569;SDS011;60594;50.204;8.844;2024-02-28T09:01:57;18.88;;;7.47;;
72569;SDS011;60594;50.204;8.844;2024-02-28T09:04:42;20.23;;;7.93;;
72569;SDS011;60594;50.204;8.844;2024-02-28T09:07:27;19.77;;;7.47;;
72569;SDS011;60594;50.204;8.844;2024-02-28T09:10:12;16.73;;;7.45;;
72569;SDS011;60594;50.204;8.844;2024-02-28T09:12:56;18.33;;;6.55;;
72569;SDS011;60594;50.204;8.844;2024-02-28T09:15:42;18.05;;;6.82;;
72569;SDS011;60594;50.204;8.844;2024-02-28T09:18:27;19.98;;;8.32;;
72569;SDS011;60594;50.204;8.844;2024-02-28T09:21:12;19.05;;;7.45;;
72569;SDS011;60594;50.204;8.844;2024-02-28T09:23:57;20.30;;;7.82;;
72569;SDS011;60594;50.204;8.844;2024-02-28T09:26:42;24.90;;;8.95;;
72569;SDS011;60594;50.204;8.844;2024-02-28T09:29:28;22.67;;;8.02;;
72569;SDS011;60594;50.204;8.844;2024-02-28T09:32:13;20.38;;;7.90;;
72569;SDS011;60594;50.204;8.844;2024-02-28T09:34:59;21.75;;;9.15;;
72569;SDS011;60594;50.204;8.844;2024-02-28T09:37:44;20.33;;;8.50;;
72569;SDS011;60594;50.204;8.844;2024-02-28T09:40:30;15.40;;;6.60;;
72569;SDS011;60594;50.204;8.844;2024-02-28T09:43:15;20.45;;;7.70;;
72569;SDS011;60594;50.204;8.844;2024-02-28T09:46:08;23.73;;;8.52;;
72569;SDS011;60594;50.204;8.844;2024-02-28T09:48:57;24.50;;;9.13;;
72569;SDS011;60594;50.204;8.844;2024-02-28T09:51:43;19.95;;;7.90;;
72569;SDS011;60594;50.204;8.844;2024-02-28T09:54:29;18.67;;;7.57;;
72569;SDS011;60594;50.204;8.844;2024-02-28T09:57:14;23.23;;;7.97;;
72569;SDS011;60594;50.204;8.844;2024-02-28T09:59:59;19.95;;;8.48;;
72569;SDS011;60594;50.204;8.844;2024-02-28T10:02:45;21.80;;;9.07;;
72569;SDS011;60594;50.204;8.844;2024-02-28T10:05:33;19.20;;;7.82;;
72569;SDS011;60594;50.204;8.844;2024-02-28T10:08:18;22.02;;;9.07;;
72569;SDS011;60594;50.204;8.844;2024-02-28T10:11:03;26.40;;;10.07;;
72569;SDS011;60594;50.204;8.844;2024-02-28T10:13:49;23.90;;;9.38;;
72569;SDS011;60594;50.204;8.844;2024-02-28T10:16:37;20.40;;;8.07;;
72569;SDS011;60594;50.204;8.844;2024-02-28T10:19:22;23.15;;;9.10;;
72569;SDS011;60594;50.204;8.844;2024-02-28T10:22:08;23.00;;;8.85;;
72569;SDS011;60594;50.204;8.844;2024-02-28T10:24:58;22.42;;;9.13;;
72569;SDS011;60594;50.204;8.844;2024-02-28T10:27:53;21.85;;;8.38;;
72569;SDS011;60594;50.204;8.844;2024-02-28T10:30:41;22.20;;;8.63;;
72569;SDS011;60594;50.204;8.844;2024-02-28T10:33:27;18.52;;;7.55;;
72569;SDS011;60594;50.204;8.844;2024-02-28T10:36:13;24.65;;;9.25;;
72569;SDS011;60594;50.204;8.844;2024-02-28T10:38:59;21.88;;;8.63;;
72569;SDS011;60594;50.204;8.844;2024-02-28T10:41:46;21.30;;;8.95;;
72569;SDS011;60594;50.204;8.844;2024-02-28T10:44:32;20.60;;;8.88;;
72569;SDS011;60594;50.204;8.844;2024-02-28T10:47:20;20.73;;;9.55;;
72569;SDS011;60594;50.204;8.844;2024-02-28T10:50:05;22.77;;;9.38;;
72569;SDS011;60594;50.204;8.844;2024-02-28T10:52:52;27.13;;;8.85;;
72569;SDS011;60594;50.204;8.844;2024-02-28T10:55:42;22.95;;;9.02;;
72569;SDS011;60594;50.204;8.844;2024-02-28T10:58:29;21.95;;;9.32;;
72569;SDS011;60594;50.204;8.844;2024-02-28T11:01:21;20.25;;;8.52;;
72569;SDS011;60594;50.204;8.844;2024-02-28T11:04:06;25.13;;;9.75;;
72569;SDS011;60594;50.204;8.844;2024-02-28T11:06:53;22.23;;;8.57;;
72569;SDS011;60594;50.204;8.844;2024-02-28T11:09:40;20.83;;;9.52;;
72569;SDS011;60594;50.204;8.844;2024-02-28T11:12:29;25.67;;;10.55;;
72569;SDS011;60594;50.204;8.844;2024-02-28T11:15:16;22.10;;;8.50;;
72569;SDS011;60594;50.204;8.844;2024-02-28T11:18:08;23.70;;;8.73;;
72569;SDS011;60594;50.204;8.844;2024-02-28T11:20:54;23.10;;;9.43;;
72569;SDS011;60594;50.204;8.844;2024-02-28T11:23:40;21.27;;;7.93;;
72569;SDS011;60594;50.204;8.844;2024-02-28T11:26:25;23.90;;;8.57;;
72569;SDS011;60594;50.204;8.844;2024-02-28T11:29:11;22.52;;;8.77;;
72569;SDS011;60594;50.204;8.844;2024-02-28T11:31:56;23.00;;;8.75;;
72569;SDS011;60594;50.204;8.844;2024-02-28T11:34:41;22.58;;;8.52;;
72569;SDS011;60594;50.204;8.844;2024-02-28T11:37:27;20.20;;;8.60;;
72569;SDS011;60594;50.204;8.844;2024-02-28T11:40:13;18.70;;;7.88;;
72569;SDS011;60594;50.204;8.844;2024-02-28T11:42:58;22.98;;;8.98;;
72569;SDS011;60594;50.204;8.844;2024-02-28T11:45:48;19.30;;;8.18;;
72569;SDS011;60594;50.204;8.844;2024-02-28T11:48:33;21.27;;;8.27;;
72569;SDS011;60594;50.204;8.844;2024-02-28T11:51:18;22.83;;;9.38;;
72569;SDS011;60594;50.204;8.844;2024-02-28T11:54:04;18.85;;;8.73;;
72569;SDS011;60594;50.204;8.844;2024-02-28T11:56:48;21.80;;;7.93;;
72569;SDS011;60594;50.204;8.844;2024-02-28T11:59:33;20.63;;;8.35;;
72569;SDS011;60594;50.204;8.844;2024-02-28T12:02:18;20.45;;;7.93;;
72569;SDS011;60594;50.204;8.844;2024-02-28T12:05:10;23.05;;;8.73;;
72569;SDS011;60594;50.204;8.844;2024-02-28T12:07:55;19.50;;;7.90;;
72569;SDS011;60594;50.204;8.844;2024-02-28T12:10:40;20.60;;;8.48;;
72569;SDS011;60594;50.204;8.844;2024-02-28T12:13:25;18.45;;;7.38;;
72569;SDS011;60594;50.204;8.844;2024-02-28T12:16:12;19.25;;;7.68;;
72569;SDS011;60594;50.204;8.844;2024-02-28T12:18:57;19.58;;;8.38;;
72569;SDS011;60594;50.204;8.844;2024-02-28T12:21:42;20.40;;;7.30;;
72569;SDS011;60594;50.204;8.844;2024-02-28T12:24:28;17.30;;;8.50;;
72569;SDS011;60594;50.204;8.844;2024-02-28T12:27:12;22.02;;;8.02;;
72569;SDS011;60594;50.204;8.844;2024-02-28T12:29:57;19.13;;;8.48;;
72569;SDS011;60594;50.204;8.844;2024-02-28T12:32:42;16.70;;;7.15;;
72569;SDS011;60594;50.204;8.844;2024-02-28T12:35:27;22.20;;;8.65;;
72569;SDS011;60594;50.204;8.844;2024-02-28T12:38:12;20.92;;;8.27;;
72569;SDS011;60594;50.204;8.844;2024-02-28T12:40:59;17.80;;;7.97;;
72569;SDS011;60594;50.204;8.844;2024-02-28T12:43:44;19.88;;;8.00;;
72569;SDS011;60594;50.204;8.844;2024-02-28T12:46:29;20.33;;;9.18;;
72569;SDS011;60594;50.204;8.844;2024-02-28T12:49:14;21.50;;;9.13;;
72569;SDS011;60594;50.204;8.844;2024-02-28T12:51:59;17.92;;;8.30;;
72569;SDS011;60594;50.204;8.844;2024-02-28T12:54:44;19.40;;;8.48;;
72569;SDS011;60594;50.204;8.844;2024-02-28T12:57:29;21.98;;;8.70;;
72569;SDS011;60594;50.204;8.844;2024-02-28T13:00:14;22.13;;;8.63;;
72569;SDS011;60594;50.204;8.844;2024-02-28T13:02:59;19.27;;;8.23;;
72569;SDS011;60594;50.204;8.844;2024-02-28T13:05:43;20.35;;;8.50;;
72569;SDS011;60594;50.204;8.844;2024-02-28T13:08:28;17.83;;;7.55;;
72569;SDS011;60594;50.204;8.844;2024-02-28T13:11:13;18.40;;;8.65;;
72569;SDS011;60594;50.204;8.844;2024-02-28T13:13:58;18.55;;;8.05;;
72569;SDS011;60594;50.204;8.844;2024-02-28T13:16:44;19.33;;;7.95;;
72569;SDS011;60594;50.204;8.844;2024-02-28T13:19:29;19.10;;;8.52;;
72569;SDS011;60594;50.204;8.844;2024-02-28T13:22:13;20.35;;;8.23;;
72569;SDS011;60594;50.204;8.844;2024-02-28T13:24:58;20.23;;;8.70;;
72569;SDS011;60594;50.204;8.844;2024-02-28T13:27:45;18.60;;;8.30;;
72569;SDS011;60594;50.204;8.844;2024-02-28T13:30:31;19.60;;;8.10;;
72569;SDS011;60594;50.204;8.844;2024-02-28T13:33:15;19.27;;;8.88;;
72569;SDS011;60594;50.204;8.844;2024-02-28T13:36:00;21.38;;;8.20;;
72569;SDS011;60594;50.204;8.844;2024-02-28T13:38:45;19.98;;;7.80;;
72569;SDS011;60594;50.204;8.844;2024-02-28T13:41:30;19.63;;;7.38;;
72569;SDS011;60594;50.204;8.844;2024-02-28T13:44:15;21.85;;;8.50;;
72569;SDS011;60594;50.204;8.844;2024-02-28T13:47:00;16.75;;;7.90;;
72569;SDS011;60594;50.204;8.844;2024-02-28T13:49:45;17.95;;;7.88;;
72569;SDS011;60594;50.204;8.844;2024-02-28T13:52:30;19.42;;;8.60;;
72569;SDS011;60594;50.204;8.844;2024-02-28T13:55:14;19.85;;;7.70;;
72569;SDS011;60594;50.204;8.844;2024-02-28T13:57:59;18.20;;;8.55;;
72569;SDS011;60594;50.204;8.844;2024-02-28T14:00:44;21.15;;;8.80;;
72569;SDS011;60594;50.204;8.844;2024-02-28T14:03:31;20.02;;;7.70;;
72569;SDS011;60594;50.204;8.844;2024-02-28T14:06:15;19.10;;;7.85;;
72569;SDS011;60594;50.204;8.844;2024-02-28T14:09:01;15.23;;;7.05;;
72569;SDS011;60594;50.204;8.844;2024-02-28T14:11:45;18.98;;;8.35;;
72569;SDS011;60594;50.204;8.844;2024-02-28T14:14:31;17.80;;;7.85;;
72569;SDS011;60594;50.204;8.844;2024-02-28T14:17:15;16.30;;;7.45;;
72569;SDS011;60594;50.204;8.844;2024-02-28T14:20:01;15.95;;;7.25;;
72569;SDS011;60594;50.204;8.844;2024-02-28T14:22:46;15.55;;;7.03;;
72569;SDS011;60594;50.204;8.844;2024-02-28T14:25:31;14.98;;;6.25;;
72569;SDS011;60594;50.204;8.844;2024-02-28T14:28:15;15.48;;;6.18;;
72569;SDS011;60594;50.204;8.844;2024-02-28T14:31:01;12.68;;;5.72;;
72569;SDS011;60594;50.204;8.844;2024-02-28T14:33:46;11.50;;;5.82;;
72569;SDS011;60594;50.204;8.844;2024-02-28T14:36:31;12.75;;;6.35;;
72569;SDS011;60594;50.204;8.844;2024-02-28T14:39:16;11.70;;;5.57;;
72569;SDS011;60594;50.204;8.844;2024-02-28T14:42:02;11.02;;;5.07;;
72569;SDS011;60594;50.204;8.844;2024-02-28T14:44:47;11.18;;;5.20;;
72569;SDS011;60594;50.204;8.844;2024-02-28T14:47:32;12.05;;;5.53;;
72569;SDS011;60594;50.204;8.844;2024-02-28T14:50:18;10.68;;;4.78;;
72569;SDS011;60594;50.204;8.844;2024-02-28T14:53:03;8.73;;;3.75;;
72569;SDS011;60594;50.204;8.844;2024-02-28T14:55:48;9.55;;;4.50;;
72569;SDS011;60594;50.204;8.844;2024-02-28T14:58:33;10.30;;;4.40;;
72569;SDS011;60594;50.204;8.844;2024-02-28T15:01:18;9.18;;;4.45;;
72569;SDS011;60594;50.204;8.844;2024-02-28T15:04:03;8.57;;;4.28;;
72569;SDS011;60594;50.204;8.844;2024-02-28T15:06:47;7.28;;;3.55;;
72569;SDS011;60594;50.204;8.844;2024-02-28T15:09:34;8.07;;;3.65;;
72569;SDS011;60594;50.204;8.844;2024-02-28T15:12:19;8.38;;;3.25;;
72569;SDS011;60594;50.204;8.844;2024-02-28T15:15:04;8.15;;;3.72;;
72569;SDS011;60594;50.204;8.844;2024-02-28T15:17:49;6.35;;;3.22;;
72569;SDS011;60594;50.204;8.844;2024-02-28T15:20:34;7.95;;;3.30;;
72569;SDS011;60594;50.204;8.844;2024-02-28T15:23:20;9.07;;;3.85;;
72569;SDS011;60594;50.204;8.844;2024-02-28T15:26:06;10.73;;;4.97;;
72569;SDS011;60594;50.204;8.844;2024-02-28T15:28:50;10.15;;;4.88;;
72569;SDS011;60594;50.204;8.844;2024-02-28T15:31:36;10.82;;;5.18;;
72569;SDS011;60594;50.204;8.844;2024-02-28T15:34:23;10.23;;;4.22;;
72569;SDS011;60594;50.204;8.844;2024-02-28T15:37:08;10.48;;;4.75;;
72569;SDS011;60594;50.204;8.844;2024-02-28T15:39:53;11.10;;;5.13;;
72569;SDS011;60594;50.204;8.844;2024-02-28T15:42:39;10.75;;;5.43;;
72569;SDS011;60594;50.204;8.844;2024-02-28T15:45:24;11.20;;;4.50;;
72569;SDS011;60594;50.204;8.844;2024-02-28T15:48:09;9.02;;;4.45;;
72569;SDS011;60594;50.204;8.844;2024-02-28T15:50:54;9.73;;;4.20;;
72569;SDS011;60594;50.204;8.844;2024-02-28T15:53:40;10.75;;;4.55;;
72569;SDS011;60594;50.204;8.844;2024-02-28T15:56:25;10.63;;;4.70;;
72569;SDS011;60594;50.204;8.844;2024-02-28T15:59:10;10.75;;;5.53;;
72569;SDS011;60594;50.204;8.844;2024-02-28T16:01:56;10.15;;;4.70;;
72569;SDS011;60594;50.204;8.844;2024-02-28T16:04:42;9.57;;;5.00;;
72569;SDS011;60594;50.204;8.844;2024-02-28T16:07:27;12.45;;;5.65;;
72569;SDS011;60594;50.204;8.844;2024-02-28T16:10:12;14.40;;;6.13;;
72569;SDS011;60594;50.204;8.844;2024-02-28T16:12:57;11.05;;;5.13;;
72569;SDS011;60594;50.204;8.844;2024-02-28T16:15:42;12.60;;;6.40;;
72569;SDS011;60594;50.204;8.844;2024-02-28T16:18:27;12.10;;;4.95;;
72569;SDS011;60594;50.204;8.844;2024-02-28T16:21:13;11.07;;;6.22;;
72569;SDS011;60594;50.204;8.844;2024-02-28T16:23:57;13.02;;;5.47;;
72569;SDS011;60594;50.204;8.844;2024-02-28T16:26:44;11.80;;;4.80;;
72569;SDS011;60594;50.204;8.844;2024-02-28T16:29:28;10.30;;;4.88;;
72569;SDS011;60594;50.204;8.844;2024-02-28T16:32:13;10.63;;;5.00;;
72569;SDS011;60594;50.204;8.844;2024-02-28T16:34:58;10.15;;;4.38;;
72569;SDS011;60594;50.204;8.844;2024-02-28T16:37:43;9.73;;;4.50;;
72569;SDS011;60594;50.204;8.844;2024-02-28T16:40:28;9.40;;;5.13;;
72569;SDS011;60594;50.204;8.844;2024-02-28T16:43:14;10.43;;;4.88;;
72569;SDS011;60594;50.204;8.844;2024-02-28T16:45:59;11.50;;;5.57;;